Time;durP1;ratioP1;P1;durP2;ratioP2;P2;SDS_P1;SDS_P2;PMS_P1;PMS_P2;Temp;Humidity;BMP_temperature;BMP_pressure;BME280_temperature;BME280_humidity;BME280_pressure;Samples;Min_cycle;Max_cycle;Signal;HPM_P1;HPM_P2
2022/02/09 07:00:29;;;;;;;13.30;7.55;;;;;;;;;;5981473;23;20935;31
2022/02/09 07:02:56;;;;;;;13.77;7.78;;;;;;;;;;4820385;29;20054;-86
2022/02/09 07:05:23;;;;;;;15.32;7.45;;;;;;;;;;4821583;29;20066;-86
2022/02/09 07:07:50;;;;;;;13.75;7.57;;;;;;;;;;4821764;29;20077;-86
2022/02/09 07:10:17;;;;;;;12.73;7.45;;;;;;;;;;4821507;29;20085;-86
2022/02/09 07:12:43;;;;;;;14.18;7.43;;;;;;;;;;4822564;29;20110;-86
2022/02/09 07:15:15;;;;;;;12.20;7.75;;;;;;;;;;4821616;29;20070;-86
2022/02/09 07:17:43;;;;;;;13.52;7.82;;;;;;;;;;4821385;29;20054;-86
2022/02/09 07:20:18;;;;;;;14.20;7.75;;;;;;;;;;4821682;29;20050;-86
2022/02/09 07:22:47;;;;;;;14.82;7.47;;;;;;;;;;4833582;29;20104;-86
2022/02/09 07:25:18;;;;;;;14.57;7.75;;;;;;;;;;4821990;29;20050;-86
2022/02/09 07:27:52;;;;;;;13.60;7.43;;;;;;;;;;4835970;29;20481;-86
2022/02/09 07:30:22;;;;;;;14.10;6.90;;;;;;;;;;4821047;29;20047;-86
2022/02/09 07:32:58;;;;;;;14.65;7.55;;;;;;;;;;4820589;29;20055;-86
2022/02/09 07:35:25;;;;;;;17.40;8.52;;;;;;;;;;4820331;29;20831;-86
2022/02/09 07:37:52;;;;;;;18.73;8.90;;;;;;;;;;4820825;29;20081;-86
2022/02/09 07:40:19;;;;;;;14.57;8.25;;;;;;;;;;4820256;29;20120;-85
2022/02/09 07:42:53;;;;;;;13.40;7.85;;;;;;;;;;4821863;29;20049;-86
2022/02/09 07:50:43;;;;;;;17.52;8.52;;;;;;;;;;4821148;29;20150;-86
2022/02/09 07:53:24;;;;;;;17.27;9.10;;;;;;;;;;4820287;29;20102;-87
2022/02/09 07:55:50;;;;;;;14.45;8.73;;;;;;;;;;4820616;29;20095;-86
2022/02/09 07:58:17;;;;;;;16.08;8.60;;;;;;;;;;4820459;29;20485;-86
2022/02/09 08:00:45;;;;;;;17.70;9.25;;;;;;;;;;4825333;29;20415;-86
2022/02/09 08:03:12;;;;;;;20.23;9.70;;;;;;;;;;4838559;29;20050;-86
2022/02/09 08:05:44;;;;;;;22.60;10.82;;;;;;;;;;4838462;29;20533;-86
2022/02/09 08:08:11;;;;;;;24.38;11.23;;;;;;;;;;4838505;29;20483;-85
2022/02/09 08:10:44;;;;;;;26.85;11.75;;;;;;;;;;4839193;29;20057;-86
2022/02/09 08:26:54;;;;;;;29.90;13.77;;;;;;;;;;4838497;29;20129;-84
2022/02/09 08:29:28;;;;;;;34.65;14.52;;;;;;;;;;4837863;29;20122;-88
2022/02/09 08:34:29;;;;;;;35.50;15.35;;;;;;;;;;4824588;29;20106;-87
2022/02/09 08:36:56;;;;;;;34.85;14.38;;;;;;;;;;4839268;29;20106;-89
2022/02/09 08:39:24;;;;;;;30.20;14.65;;;;;;;;;;4838495;29;20058;-88
2022/02/09 08:41:53;;;;;;;38.13;14.57;;;;;;;;;;4841879;29;20430;-86
2022/02/09 08:44:20;;;;;;;34.13;15.38;;;;;;;;;;4841385;29;20076;-85
2022/02/09 08:46:47;;;;;;;37.03;14.85;;;;;;;;;;4842172;29;20520;-86
2022/02/09 08:49:14;;;;;;;32.08;14.05;;;;;;;;;;4842351;29;20054;-86
2022/02/09 08:51:41;;;;;;;38.20;14.48;;;;;;;;;;4842647;29;20089;-82
2022/02/09 08:54:07;;;;;;;29.65;13.23;;;;;;;;;;4841383;29;20058;-85
2022/02/09 08:56:38;;;;;;;39.63;15.32;;;;;;;;;;4850261;29;20051;-85
2022/02/09 08:59:07;;;;;;;39.10;15.00;;;;;;;;;;4831295;29;20414;-83
2022/02/09 09:04:14;;;;;;;34.30;13.68;;;;;;;;;;4841767;29;20078;-86
2022/02/09 09:06:43;;;;;;;31.67;13.60;;;;;;;;;;4842280;29;20115;-85
2022/02/09 10:35:23;;;;;;;13.40;7.53;;;;;;;;;;4820351;29;20054;-88
2022/02/09 10:37:50;;;;;;;12.50;7.18;;;;;;;;;;4806030;29;20065;-87
2022/02/09 10:40:43;;;;;;;13.30;7.05;;;;;;;;;;4818662;29;20650;-88
2022/02/09 10:43:27;;;;;;;11.27;6.90;;;;;;;;;;4803759;29;20123;-88
2022/02/09 10:46:19;;;;;;;11.30;7.22;;;;;;;;;;4821205;29;20058;-89
2022/02/09 10:48:54;;;;;;;10.45;7.25;;;;;;;;;;4806528;29;20120;-87
2022/02/09 10:54:25;;;;;;;10.55;6.20;;;;;;;;;;4802931;29;20055;-88
2022/02/09 10:56:55;;;;;;;8.70;6.30;;;;;;;;;;4815382;29;20046;-87
2022/02/09 10:59:29;;;;;;;8.90;5.70;;;;;;;;;;4812726;29;20058;-88
2022/02/09 11:02:00;;;;;;;8.23;5.57;;;;;;;;;;4813922;29;20047;-89
2022/02/09 11:04:29;;;;;;;8.35;5.45;;;;;;;;;;4791156;29;20096;-88
2022/02/09 11:06:56;;;;;;;8.48;5.45;;;;;;;;;;4804425;29;20054;-88
2022/02/09 11:09:28;;;;;;;9.77;5.97;;;;;;;;;;4800585;29;20058;-88
2022/02/09 11:11:57;;;;;;;8.85;5.18;;;;;;;;;;4817795;29;20055;-89
2022/02/09 11:14:26;;;;;;;8.55;5.75;;;;;;;;;;4803859;29;20588;-89
2022/02/09 11:17:04;;;;;;;6.03;4.32;;;;;;;;;;4803663;29;20150;-88
2022/02/09 11:19:35;;;;;;;5.88;4.10;;;;;;;;;;4797304;29;20615;-88
2022/02/09 11:22:23;;;;;;;8.25;5.60;;;;;;;;;;4800831;29;20055;-89
2022/02/09 11:25:08;;;;;;;8.88;5.70;;;;;;;;;;4801692;29;20594;-88
2022/02/09 11:27:37;;;;;;;8.88;5.53;;;;;;;;;;4814309;29;20107;-89
2022/02/09 11:30:30;;;;;;;7.93;5.13;;;;;;;;;;4800936;29;20100;-84
2022/02/09 11:36:17;;;;;;;21.33;14.20;;;;;;;;;;4804248;29;20535;-87
2022/02/09 11:38:50;;;;;;;13.27;8.55;;;;;;;;;;4798874;29;20815;-88
2022/02/09 11:41:22;;;;;;;9.15;6.18;;;;;;;;;;4803771;29;20074;-88
2022/02/09 11:46:59;;;;;;;13.23;7.68;;;;;;;;;;4802503;29;20058;-89
2022/02/09 11:52:26;;;;;;;12.90;9.43;;;;;;;;;;4799079;29;20104;-88
2022/02/09 12:00:37;;;;;;;11.60;7.45;;;;;;;;;;4802534;29;20088;-88
2022/02/09 12:12:02;;;;;;;14.82;8.70;;;;;;;;;;4835994;29;20056;-88
2022/02/09 12:20:05;;;;;;;13.70;9.10;;;;;;;;;;4842984;29;20085;-87
2022/02/09 12:22:43;;;;;;;9.63;6.55;;;;;;;;;;4840236;29;20787;-88
2022/02/09 12:25:10;;;;;;;14.45;9.40;;;;;;;;;;4842007;29;20050;-87
2022/02/09 12:27:37;;;;;;;8.00;5.18;;;;;;;;;;4841465;29;20046;-88
2022/02/09 12:30:13;;;;;;;6.93;5.05;;;;;;;;;;4848545;29;20046;-88
2022/02/09 12:32:39;;;;;;;8.13;5.75;;;;;;;;;;4841697;29;20058;-88
2022/02/09 12:35:08;;;;;;;9.88;7.70;;;;;;;;;;4842710;29;20435;-87
2022/02/09 12:37:43;;;;;;;15.13;10.60;;;;;;;;;;4842666;29;20116;-88
2022/02/09 12:40:17;;;;;;;11.68;8.90;;;;;;;;;;4842191;29;20065;-88
2022/02/09 12:42:47;;;;;;;7.78;6.55;;;;;;;;;;4837940;29;20046;-88
2022/02/09 12:45:22;;;;;;;7.28;5.40;;;;;;;;;;4842502;29;20050;-88
2022/02/09 12:48:00;;;;;;;8.88;5.75;;;;;;;;;;4842828;29;20580;-88
2022/02/09 12:50:38;;;;;;;6.72;5.18;;;;;;;;;;4838669;29;20105;-88
2022/02/09 12:53:07;;;;;;;5.40;4.57;;;;;;;;;;4842652;29;20145;-87
2022/02/09 12:55:35;;;;;;;;;;;;;;;;;;4843281;29;20132;-88
2022/02/09 12:58:08;;;;;;;12.27;8.88;;;;;;;;;;4843281;29;19928;-88
2022/02/09 13:00:43;;;;;;;11.70;8.18;;;;;;;;;;4842653;29;20050;-88
2022/02/09 13:03:16;;;;;;;12.30;9.77;;;;;;;;;;4842349;29;20106;-88
2022/02/09 13:06:03;;;;;;;7.00;4.70;;;;;;;;;;4842575;29;20050;-88
2022/02/09 13:08:30;;;;;;;7.40;4.80;;;;;;;;;;4833179;29;20058;-88
2022/02/09 13:11:15;;;;;;;8.23;5.18;;;;;;;;;;4845613;29;20484;-88
2022/02/09 13:13:46;;;;;;;8.38;5.32;;;;;;;;;;4831360;29;20427;-89
2022/02/09 13:16:56;;;;;;;10.98;5.75;;;;;;;;;;4840560;29;20522;-88
2022/02/09 13:19:42;;;;;;;10.43;6.18;;;;;;;;;;4841909;29;20057;-88
2022/02/09 14:53:00;;;;;;;24.30;6.68;;;;;;;;;;4837779;29;20494;-86
2022/02/09 14:55:42;;;;;;;26.90;7.53;;;;;;;;;;4836903;29;20580;-86
2022/02/09 14:58:14;;;;;;;21.90;6.45;;;;;;;;;;4837319;29;20074;-86
2022/02/09 15:00:58;;;;;;;17.35;6.30;;;;;;;;;;4839138;29;20114;-86
2022/02/09 15:06:20;;;;;;;18.83;5.95;;;;;;;;;;4839325;29;20100;-86
2022/02/09 15:11:27;;;;;;;21.23;7.80;;;;;;;;;;4838940;29;20495;-85
2022/02/09 15:16:32;;;;;;;23.77;7.10;;;;;;;;;;4838778;29;20069;-85
2022/02/09 15:24:08;;;;;;;;;;;;;;;;;;4839037;29;20070;-86
2022/02/09 15:26:35;;;;;;;18.40;6.32;;;;;;;;;;4838977;29;19960;-86
2022/02/09 15:29:02;;;;;;;21.08;6.82;;;;;;;;;;4851699;29;20142;-85
2022/02/09 15:34:38;;;;;;;18.48;6.85;;;;;;;;;;4819462;29;20512;-87
2022/02/09 15:39:40;;;;;;;14.77;7.50;;;;;;;;;;4816727;29;20108;-87
2022/02/09 15:42:32;;;;;;;20.38;7.80;;;;;;;;;;4818465;29;20054;-86
2022/02/09 16:10:38;;;;;;;19.25;7.75;;;;;;;;;;4818650;29;20563;-86
2022/02/09 16:23:49;;;;;;;29.45;16.00;;;;;;;;;;4810413;29;20063;-85
2022/02/09 16:48:28;;;;;;;38.60;13.93;;;;;;;;;;4854947;29;20499;-91
2022/02/09 16:50:55;;;;;;;79.97;32.75;;;;;;;;;;4855324;29;20050;-88
2022/02/09 16:53:50;;;;;;;84.70;40.67;;;;;;;;;;4856624;29;20192;-88
2022/02/09 16:56:28;;;;;;;52.70;28.33;;;;;;;;;;4854881;29;20102;-87
2022/02/09 17:18:48;;;;;;;29.73;9.07;;;;;;;;;;4842847;29;20119;-82
2022/02/09 17:18:57;;;;;;;44.72;11.55;;;;;;;;;;4841993;29;20050;-90
2022/02/09 17:21:25;;;;;;;35.15;11.90;;;;;;;;;;4842214;29;20531;-85
2022/02/09 17:23:57;;;;;;;34.45;9.30;;;;;;;;;;4843741;29;20134;-86
2022/02/09 17:26:25;;;;;;;33.67;8.98;;;;;;;;;;4841813;29;20053;-92
2022/02/09 17:29:03;;;;;;;38.75;10.63;;;;;;;;;;4841865;29;20049;-85
2022/02/09 17:31:47;;;;;;;47.05;12.43;;;;;;;;;;4824556;29;20058;-90
2022/02/09 17:34:43;;;;;;;61.60;16.20;;;;;;;;;;4839479;29;20085;-88
2022/02/09 17:53:27;;;;;;;33.83;10.23;;;;;;;;;;4831745;29;20154;-86
2022/02/09 17:56:06;;;;;;;40.08;11.55;;;;;;;;;;4833281;29;20054;-88
2022/02/09 17:58:50;;;;;;;32.22;7.50;;;;;;;;;;4833622;29;20069;-87
2022/02/09 18:01:21;;;;;;;51.50;8.98;;;;;;;;;;4831197;29;20130;-91
2022/02/09 18:03:52;;;;;;;45.10;10.60;;;;;;;;;;4831526;29;20114;-93
2022/02/09 18:06:23;;;;;;;42.92;11.10;;;;;;;;;;4836817;29;20131;-89
2022/02/09 18:11:38;;;;;;;60.15;21.50;;;;;;;;;;4835085;29;20114;-88
2022/02/09 18:14:28;;;;;;;50.78;17.02;;;;;;;;;;4835269;29;20054;-89
2022/02/09 18:25:16;;;;;;;34.63;14.18;;;;;;;;;;4835196;29;20109;-85
2022/02/09 18:46:28;;;;;;;39.30;18.10;;;;;;;;;;4834235;29;20047;-90
2022/02/09 18:59:57;;;;;;;48.05;29.33;;;;;;;;;;4835145;29;20057;-93
2022/02/09 19:05:22;;;;;;;30.35;16.10;;;;;;;;;;4839294;29;20106;-93
2022/02/09 19:08:16;;;;;;;29.05;16.52;;;;;;;;;;4839636;29;20092;-92
2022/02/09 19:48:23;;;;;;;28.95;10.80;;;;;;;;;;4855514;29;20127;-93
2022/02/09 19:56:19;;;;;;;23.08;8.80;;;;;;;;;;4838668;29;20057;-90
2022/02/09 19:58:55;;;;;;;17.65;11.23;;;;;;;;;;4836972;29;20469;-91
2022/02/09 20:01:24;;;;;;;19.35;12.27;;;;;;;;;;4839479;29;20086;-90
2022/02/09 20:03:51;;;;;;;32.13;18.10;;;;;;;;;;4837133;29;20114;-90
2022/02/09 20:06:17;;;;;;;61.85;24.35;;;;;;;;;;4836760;29;20077;-90
2022/02/09 20:08:44;;;;;;;35.70;13.10;;;;;;;;;;4836545;29;20106;-91
2022/02/09 20:11:15;;;;;;;24.35;11.75;;;;;;;;;;4836998;29;20050;-91
2022/02/09 20:13:42;;;;;;;40.85;20.02;;;;;;;;;;4837175;29;20554;-89
2022/02/09 20:16:09;;;;;;;23.30;10.23;;;;;;;;;;4837591;29;20542;-90
2022/02/09 20:18:36;;;;;;;20.35;7.53;;;;;;;;;;4850624;29;20078;-89
2022/02/09 20:21:04;;;;;;;42.00;15.70;;;;;;;;;;4839006;29;20053;-91
2022/02/09 20:23:33;;;;;;;23.08;10.98;;;;;;;;;;4837545;29;20471;-91
2022/02/09 20:26:04;;;;;;;36.08;14.02;;;;;;;;;;4838447;29;20054;-90
2022/02/09 20:28:30;;;;;;;26.50;11.95;;;;;;;;;;4852852;29;20053;-91
2022/02/09 20:31:05;;;;;;;17.90;10.18;;;;;;;;;;4840175;29;20061;-90
2022/02/09 20:33:39;;;;;;;35.35;21.58;;;;;;;;;;4837271;29;20058;-91
2022/02/09 20:36:08;;;;;;;31.35;17.50;;;;;;;;;;4840680;29;20061;-91
2022/02/09 20:38:36;;;;;;;24.77;10.63;;;;;;;;;;4842674;29;20057;-92
2022/02/09 20:41:09;;;;;;;30.88;17.13;;;;;;;;;;4844326;29;20140;-89
2022/02/09 20:43:44;;;;;;;22.35;10.25;;;;;;;;;;4839976;29;20054;-90
2022/02/09 20:46:12;;;;;;;30.38;9.40;;;;;;;;;;4834238;29;20064;-89
2022/02/09 20:48:39;;;;;;;63.17;33.75;;;;;;;;;;4841117;29;20054;-90
2022/02/09 20:51:06;;;;;;;64.47;38.90;;;;;;;;;;4837858;29;20046;-82
2022/02/09 20:53:37;;;;;;;80.93;43.22;;;;;;;;;;4840325;29;20054;-91
2022/02/09 20:56:04;;;;;;;53.17;26.35;;;;;;;;;;4840342;29;20146;-87
2022/02/09 20:58:34;;;;;;;109.18;61.38;;;;;;;;;;4836876;29;20133;-91
2022/02/09 21:01:07;;;;;;;82.20;42.38;;;;;;;;;;4838130;29;20066;-91
2022/02/09 21:11:47;;;;;;;59.97;28.45;;;;;;;;;;4837759;29;20058;-91
2022/02/09 21:17:16;;;;;;;63.80;35.30;;;;;;;;;;4838255;29;20114;-90
2022/02/09 21:57:02;;;;;;;382.75;29.75;;;;;;;;;;4839605;29;20046;-90
2022/02/09 22:25:05;;;;;;;399.08;21.15;;;;;;;;;;4836379;29;20062;-90
2022/02/09 22:33:06;;;;;;;337.85;19.00;;;;;;;;;;4823938;29;20074;-91
2022/02/09 22:47:17;;;;;;;206.05;18.63;;;;;;;;;;4827555;29;20077;-87
2022/02/09 22:56:48;;;;;;;106.97;15.13;;;;;;;;;;4818143;29;20621;-88
2022/02/09 22:59:23;;;;;;;60.15;11.27;;;;;;;;;;4818988;29;20070;-89
2022/02/09 23:01:55;;;;;;;51.33;13.63;;;;;;;;;;4820941;29;20070;-88
2022/02/09 23:04:41;;;;;;;66.95;16.58;;;;;;;;;;4821366;29;20050;-90
2022/02/09 23:07:24;;;;;;;71.93;14.95;;;;;;;;;;4836573;29;20042;-88
